createdAt,value
2023-03-06T00:03:46.949Z,8.95
2023-03-06T00:08:48.377Z,7.65
2023-03-06T00:13:49.744Z,8.43
2023-03-06T00:18:51.585Z,4.70
2023-03-06T00:23:52.965Z,7.63
2023-03-06T00:28:54.344Z,8.35
2023-03-06T00:33:55.685Z,7.32
2023-03-06T00:38:57.072Z,8.43
2023-03-06T00:43:58.447Z,4.78
2023-03-06T00:48:59.885Z,3.92
2023-03-06T00:54:01.340Z,5.28
2023-03-06T00:59:02.709Z,5.07
2023-03-06T01:04:04.629Z,6.80
2023-03-06T01:09:06.213Z,6.55
2023-03-06T01:14:07.685Z,6.70
2023-03-06T01:19:09.498Z,9.48
2023-03-06T01:24:10.872Z,5.60
2023-03-06T01:29:12.290Z,8.05
2023-03-06T01:34:13.742Z,11.10
2023-03-06T01:39:15.278Z,14.68
2023-03-06T01:44:16.657Z,7.72
2023-03-06T01:49:25.635Z,5.35
2023-03-06T01:54:32.108Z,5.03
2023-03-06T01:59:37.196Z,4.90
2023-03-06T02:04:41.181Z,6.00
2023-03-06T02:09:42.557Z,6.60
2023-03-06T02:14:44.985Z,10.18
2023-03-06T02:20:10.867Z,7.13
2023-03-06T02:25:43.134Z,6.22
2023-03-06T02:30:46.999Z,6.65
2023-03-06T02:35:54.578Z,7.10
2023-03-06T02:40:58.008Z,6.85
2023-03-06T02:45:59.437Z,5.13
2023-03-06T02:51:01.154Z,5.20
2023-03-06T02:56:02.723Z,8.13
2023-03-06T03:01:04.737Z,6.75
2023-03-06T03:06:06.945Z,5.60
2023-03-06T03:11:09.243Z,7.32
2023-03-06T03:16:15.330Z,4.82
2023-03-06T03:21:17.909Z,7.30
2023-03-06T03:26:21.463Z,6.55
2023-03-06T03:31:22.909Z,9.70
2023-03-06T03:36:25.982Z,6.53
2023-03-06T03:41:27.362Z,7.05
2023-03-06T03:46:28.944Z,9.27
2023-03-06T03:51:30.362Z,10.50
2023-03-06T03:56:32.224Z,6.40
2023-03-06T04:01:34.083Z,7.93
2023-03-06T04:06:35.784Z,7.45
2023-03-06T04:11:37.449Z,9.35
2023-03-06T04:16:38.826Z,8.18
2023-03-06T04:21:40.392Z,6.90
2023-03-06T04:26:41.972Z,6.10
2023-03-06T04:31:43.447Z,7.28
2023-03-06T04:36:47.414Z,7.05
2023-03-06T04:41:48.835Z,6.78
2023-03-06T04:46:50.268Z,8.18
2023-03-06T04:51:51.653Z,7.75
2023-03-06T04:56:53.035Z,8.07
2023-03-06T05:01:55.999Z,7.05
2023-03-06T05:06:57.405Z,10.50
2023-03-06T05:11:58.765Z,8.40
2023-03-06T05:17:00.285Z,12.02
2023-03-06T05:22:01.857Z,11.90
2023-03-06T05:27:03.822Z,9.48
2023-03-06T05:32:05.712Z,8.48
2023-03-06T05:37:07.160Z,11.80
2023-03-06T05:42:08.554Z,9.38
2023-03-06T05:47:11.212Z,8.25
2023-03-06T05:52:13.257Z,14.20
2023-03-06T05:57:14.606Z,10.38
2023-03-06T06:02:18.260Z,10.00
2023-03-06T06:07:19.638Z,9.15
2023-03-06T06:12:21.001Z,8.13
2023-03-06T06:17:22.427Z,11.00
2023-03-06T06:22:24.606Z,12.13
2023-03-06T06:27:26.106Z,9.85
2023-03-06T06:32:27.518Z,9.23
2023-03-06T06:37:28.898Z,10.43
2023-03-06T06:42:36.961Z,9.27
2023-03-06T06:47:41.623Z,9.85
2023-03-06T06:52:43.264Z,14.73
2023-03-06T06:57:45.193Z,9.75
2023-03-06T07:02:49.218Z,8.35
2023-03-06T07:07:51.406Z,10.75
2023-03-06T07:12:53.203Z,10.68
2023-03-06T07:17:54.619Z,8.77
2023-03-06T07:22:56.063Z,8.20
2023-03-06T07:27:57.528Z,9.80
2023-03-06T07:32:59.876Z,9.95
2023-03-06T07:38:01.864Z,10.48
2023-03-06T07:43:18.412Z,12.82
2023-03-06T07:48:20.606Z,8.27
2023-03-06T07:53:22.636Z,10.10
2023-03-06T07:58:24.727Z,9.73
2023-03-06T08:03:26.291Z,12.25
2023-03-06T08:08:27.671Z,12.32
2023-03-06T08:13:29.052Z,10.18
2023-03-06T08:18:30.669Z,11.98
2023-03-06T08:23:33.537Z,16.95
2023-03-06T08:28:35.225Z,10.70
2023-03-06T08:33:36.682Z,13.60
2023-03-06T08:38:38.021Z,9.93
2023-03-06T08:43:40.216Z,10.77
2023-03-06T08:48:41.888Z,10.65
2023-03-06T08:53:44.506Z,8.57
2023-03-06T08:58:46.844Z,6.28
2023-03-06T09:03:48.687Z,8.05
2023-03-06T09:08:53.919Z,11.25
2023-03-06T09:13:56.312Z,9.00
2023-03-06T09:18:58.692Z,9.25
2023-03-06T09:24:00.282Z,11.30
2023-03-06T09:29:02.446Z,10.23
2023-03-06T09:34:03.867Z,12.05
2023-03-06T09:39:05.195Z,10.18
2023-03-06T09:44:14.484Z,11.63
2023-03-06T09:49:41.953Z,8.40
2023-03-06T09:54:55.339Z,8.60
2023-03-06T10:00:12.689Z,14.48
2023-03-06T10:05:21.533Z,11.40
2023-03-06T10:10:26.775Z,15.57
2023-03-06T10:15:34.134Z,16.13
2023-03-06T10:20:54.394Z,12.25
2023-03-06T10:26:08.521Z,12.13
2023-03-06T10:31:22.923Z,13.05
2023-03-06T10:36:28.687Z,15.35
2023-03-06T10:41:32.150Z,12.57
2023-03-06T10:46:36.377Z,11.45
2023-03-06T10:51:38.032Z,12.02
2023-03-06T10:56:45.768Z,12.35
2023-03-06T11:01:49.793Z,11.52
2023-03-06T11:07:13.352Z,9.25
2023-03-06T11:12:32.654Z,9.05
2023-03-06T11:17:37.571Z,9.27
2023-03-06T11:22:39.742Z,7.75
2023-03-06T11:27:44.044Z,9.43
2023-03-06T11:32:53.934Z,10.70
2023-03-06T11:37:59.892Z,11.60
2023-03-06T11:43:19.948Z,9.70
2023-03-06T11:48:28.295Z,9.43
2023-03-06T11:53:33.556Z,11.23
2023-03-06T11:59:02.142Z,9.18
2023-03-06T12:04:22.402Z,9.95
2023-03-06T12:09:34.266Z,8.45
2023-03-06T12:14:40.388Z,9.25
2023-03-06T12:20:06.805Z,7.22
2023-03-06T12:25:25.538Z,7.97
2023-03-06T12:30:40.465Z,7.60
2023-03-06T12:35:47.958Z,7.07
2023-03-06T12:46:19.707Z,4.93
2023-03-06T12:51:21.997Z,7.10
2023-03-06T12:56:23.493Z,7.55
2023-03-06T13:01:55.528Z,7.35
2023-03-06T13:07:29.645Z,8.88
2023-03-06T13:12:50.109Z,6.95
2023-03-06T13:17:51.450Z,8.35
2023-03-06T13:22:52.831Z,9.88
2023-03-06T13:27:54.255Z,7.25
2023-03-06T13:32:56.131Z,9.05
2023-03-06T13:37:59.076Z,7.55
2023-03-06T13:43:09.445Z,7.80
2023-03-06T13:48:44.623Z,6.82
2023-03-06T13:54:13.853Z,9.48
2023-03-06T13:59:21.053Z,9.35
2023-03-06T14:04:27.131Z,9.02
2023-03-06T14:09:35.765Z,12.38
2023-03-06T14:14:43.761Z,10.05
2023-03-06T14:19:45.751Z,9.88
2023-03-06T14:25:30.269Z,6.55
2023-03-06T14:30:31.742Z,8.90
2023-03-06T14:35:34.602Z,8.50
2023-03-06T14:40:42.621Z,7.53
2023-03-06T14:46:02.310Z,7.75
2023-03-06T14:51:05.470Z,9.57
2023-03-06T14:56:07.903Z,8.60
2023-03-06T15:01:11.402Z,10.65
2023-03-06T15:06:22.612Z,8.25
2023-03-06T15:11:24.182Z,10.18
2023-03-06T15:16:30.047Z,12.10
2023-03-06T15:21:37.688Z,8.82
2023-03-06T15:26:40.317Z,9.63
2023-03-06T15:31:44.119Z,10.43
2023-03-06T15:36:54.260Z,8.90
2023-03-06T15:41:57.769Z,10.52
2023-03-06T15:47:08.407Z,10.68
2023-03-06T15:52:11.130Z,10.70
2023-03-06T15:57:30.784Z,11.27
2023-03-06T16:02:32.458Z,8.90
2023-03-06T16:07:34.009Z,12.25
2023-03-06T16:12:35.881Z,11.25
2023-03-06T16:17:37.406Z,9.32
2023-03-06T16:22:38.865Z,11.32
2023-03-06T16:27:43.945Z,12.40
2023-03-06T16:32:46.135Z,9.27
2023-03-06T16:37:47.795Z,14.15
2023-03-06T16:42:52.004Z,11.05
2023-03-06T16:47:54.705Z,11.27
2023-03-06T16:52:57.522Z,13.02
2023-03-06T16:57:59.093Z,13.95
2023-03-06T17:03:01.736Z,11.50
2023-03-06T17:08:04.698Z,12.55
2023-03-06T17:13:08.400Z,11.45
2023-03-06T17:18:09.741Z,10.93
2023-03-06T17:23:11.331Z,10.45
2023-03-06T17:28:13.433Z,10.60
2023-03-06T17:33:17.466Z,13.98
2023-03-06T17:38:19.126Z,12.85
2023-03-06T17:43:21.036Z,16.15
2023-03-06T17:48:22.568Z,11.88
2023-03-06T17:53:24.000Z,11.55
2023-03-06T17:58:26.525Z,11.75
2023-03-06T18:03:29.036Z,12.02
2023-03-06T18:08:32.048Z,8.65
2023-03-06T18:13:34.985Z,10.35
2023-03-06T18:18:36.443Z,13.25
2023-03-06T18:23:39.329Z,11.23
2023-03-06T18:28:44.376Z,10.70
2023-03-06T18:33:48.663Z,8.43
2023-03-06T18:38:50.218Z,12.90
2023-03-06T18:43:52.977Z,11.63
2023-03-06T18:48:54.859Z,8.23
2023-03-06T18:53:58.125Z,9.02
2023-03-06T18:59:04.405Z,8.27
2023-03-06T19:04:05.948Z,11.15
2023-03-06T19:09:08.019Z,11.95
2023-03-06T19:14:09.440Z,13.02
2023-03-06T19:19:10.935Z,13.52
2023-03-06T19:24:14.979Z,10.57
2023-03-06T19:29:16.440Z,11.43
2023-03-06T19:34:18.037Z,11.38
2023-03-06T19:39:19.633Z,13.93
2023-03-06T19:44:21.137Z,14.25
2023-03-06T19:49:22.599Z,15.30
2023-03-06T19:54:25.509Z,12.18
2023-03-06T19:59:27.023Z,14.35
2023-03-06T20:04:34.566Z,17.00
2023-03-06T20:09:36.205Z,14.63
2023-03-06T20:14:37.654Z,12.20
2023-03-06T20:19:39.187Z,16.98
2023-03-06T20:24:40.727Z,15.18
2023-03-06T20:29:45.704Z,17.75
2023-03-06T20:34:47.132Z,17.55
2023-03-06T20:39:48.566Z,19.80
2023-03-06T20:44:49.940Z,14.82
2023-03-06T20:55:11.444Z,17.33
2023-03-06T21:05:18.392Z,16.52
2023-03-06T21:10:22.254Z,16.60
2023-03-06T21:15:27.634Z,18.27
2023-03-06T21:20:29.317Z,18.70
2023-03-06T21:30:46.859Z,18.27
2023-03-06T21:35:48.308Z,18.67
2023-03-06T21:40:49.666Z,19.95
2023-03-06T21:45:54.115Z,20.83
2023-03-06T21:51:05.927Z,16.58
2023-03-06T21:56:07.899Z,17.50
2023-03-06T22:01:14.072Z,22.80
2023-03-06T22:06:18.617Z,18.17
2023-03-06T22:11:21.680Z,17.65
2023-03-06T22:16:23.574Z,19.80
2023-03-06T22:21:25.258Z,19.83
2023-03-06T22:26:28.433Z,20.10
2023-03-06T22:31:30.257Z,17.60
2023-03-06T22:36:32.329Z,22.20
2023-03-06T22:41:33.671Z,21.13
2023-03-06T22:46:35.400Z,20.05
2023-03-06T22:51:37.626Z,23.52
2023-03-06T22:56:39.052Z,22.52
2023-03-06T23:01:40.507Z,23.52
2023-03-06T23:06:43.043Z,24.33
2023-03-06T23:11:44.392Z,24.27
2023-03-06T23:16:46.056Z,28.25
2023-03-06T23:21:47.413Z,24.55
2023-03-06T23:26:49.124Z,20.55
2023-03-06T23:31:50.503Z,24.50
2023-03-06T23:36:51.882Z,23.77
2023-03-06T23:41:53.265Z,23.63
2023-03-06T23:46:54.594Z,21.15
2023-03-06T23:51:55.921Z,22.67
2023-03-06T23:56:57.273Z,22.98
